Time;durP1;ratioP1;P1;durP2;ratioP2;P2;SDS_P1;SDS_P2;PMS_P1;PMS_P2;Temp;Humidity;BMP_temperature;BMP_pressure;BME280_temperature;BME280_humidity;BME280_pressure;Samples;Min_cycle;Max_cycle;Signal;HPM_P1;HPM_P2
2023/03/10 00:01:19;;;;;;;73.13;26.38;;;;;;;-146.25;100.00;52485.81;2105565;28;20079;-70
2023/03/10 00:02:21;;;;;;;69.07;25.50;;;;;;;-146.25;100.00;52485.81;2105443;28;33375;-70
2023/03/10 00:03:23;;;;;;;76.30;26.08;;;;;;;-146.25;100.00;52473.63;2096653;28;35883;-70
2023/03/10 00:04:25;;;;;;;81.60;26.88;;;;;;;-146.25;100.00;52493.91;2097470;28;20726;-70
2023/03/10 00:05:27;;;;;;;62.88;22.55;;;;;;;-146.25;100.00;52500.00;2105094;28;36279;-70
2023/03/10 00:06:33;;;;;;;86.40;28.40;;;;;;;-146.25;100.00;52469.56;2104042;28;34125;-70
2023/03/10 00:07:35;;;;;;;76.05;27.92;;;;;;;-146.25;100.00;52477.69;2105138;28;35637;-70
2023/03/10 00:08:40;;;;;;;75.13;26.08;;;;;;;-146.25;100.00;52467.56;2106090;28;20316;-69
2023/03/10 00:09:43;;;;;;;77.68;27.15;;;;;;;-146.25;100.00;52457.41;2105524;28;33791;-70
2023/03/10 00:10:45;;;;;;;79.07;26.45;;;;;;;-146.25;100.00;52467.56;2105157;28;36734;-70
2023/03/10 00:11:47;;;;;;;81.07;28.70;;;;;;;-146.25;100.00;52453.34;2096668;28;33003;-70
2023/03/10 00:12:49;;;;;;;81.07;26.67;;;;;;;-146.25;100.00;52485.81;2088685;28;33645;-70
2023/03/10 00:13:53;;;;;;;62.83;23.60;;;;;;;-146.25;100.00;52493.91;2097400;28;20047;-71
2023/03/10 00:14:55;;;;;;;74.25;25.95;;;;;;;-146.25;100.00;52483.78;2105105;28;36277;-71
2023/03/10 00:15:57;;;;;;;79.70;27.35;;;;;;;-146.25;100.00;52520.28;2105720;28;35565;-71
2023/03/10 00:16:59;;;;;;;81.75;26.02;;;;;;;-146.25;100.00;52485.81;2106119;28;20083;-71
2023/03/10 00:18:00;;;;;;;77.05;27.67;;;;;;;-146.25;100.00;52457.41;2105601;28;36167;-71
2023/03/10 00:19:04;;;;;;;77.22;27.35;;;;;;;-146.25;100.00;52469.56;2096473;28;35077;-71
2023/03/10 00:20:10;;;;;;;77.97;26.00;;;;;;;-146.25;100.00;52489.84;2096969;28;29922;-71
2023/03/10 00:21:23;;;;;;;71.45;25.45;;;;;;;-146.25;100.00;52433.06;2106353;28;20134;-71
2023/03/10 00:22:25;;;;;;;80.28;26.92;;;;;;;-146.25;100.00;52477.69;2096361;28;39763;-70
2023/03/10 00:23:27;;;;;;;72.70;25.67;;;;;;;-146.25;100.00;52500.00;2098782;28;20750;-70
2023/03/10 00:24:28;;;;;;;69.18;25.45;;;;;;;-146.25;100.00;52489.84;2105661;28;34037;-70
2023/03/10 00:25:33;;;;;;;77.78;27.00;;;;;;;-146.25;100.00;52502.03;2104974;28;35203;-72
2023/03/10 00:26:37;;;;;;;73.75;26.08;;;;;;;-146.25;100.00;52506.06;2104570;28;35146;-71
2023/03/10 00:27:38;;;;;;;67.82;24.90;;;;;;;-146.25;100.00;52491.88;2105552;28;27598;-71
2023/03/10 00:28:41;;;;;;;74.20;25.30;;;;;;;-146.25;100.00;52422.94;2105955;28;20048;-70
2023/03/10 00:29:42;;;;;;;72.28;24.17;;;;;;;-146.25;100.00;52479.72;2104855;28;25286;-70
2023/03/10 00:30:58;;;;;;;72.30;24.77;;;;;;;-146.25;100.00;52465.53;2105393;28;20040;-69
2023/03/10 00:31:59;;;;;;;71.85;25.40;;;;;;;-146.25;100.00;52477.69;2096467;28;24765;-70
2023/03/10 00:33:06;;;;;;;67.72;23.33;;;;;;;-146.25;100.00;52477.69;2098935;28;20037;-70
2023/03/10 00:34:10;;;;;;;77.60;26.05;;;;;;;-146.25;100.00;52479.72;2104802;28;26105;-70
2023/03/10 00:35:12;;;;;;;70.40;24.40;;;;;;;-146.25;100.00;52467.56;2088178;28;33552;-70
2023/03/10 00:36:21;;;;;;;74.80;26.40;;;;;;;-146.25;100.00;52489.84;2088532;28;28222;-70
2023/03/10 00:37:22;;;;;;;71.32;24.98;;;;;;;-146.25;100.00;52461.47;2105755;28;28589;-70
2023/03/10 00:38:24;;;;;;;72.88;25.08;;;;;;;-146.25;100.00;52493.91;2096258;28;31853;-69
2023/03/10 00:39:26;;;;;;;71.35;24.15;;;;;;;-146.25;100.00;52489.84;2096420;28;32274;-70
2023/03/10 00:40:27;;;;;;;74.28;25.77;;;;;;;-146.25;100.00;52435.09;2087788;28;27313;-69
2023/03/10 00:41:35;;;;;;;70.05;25.15;;;;;;;-146.25;100.00;52461.47;2080700;28;20907;-70
2023/03/10 00:42:37;;;;;;;71.78;24.83;;;;;;;-146.25;100.00;52481.75;2089757;28;20045;-69
2023/03/10 00:43:39;;;;;;;68.00;24.52;;;;;;;-146.25;100.00;52502.03;2088289;28;28607;-71
2023/03/10 00:44:41;;;;;;;66.43;23.00;;;;;;;-146.25;100.00;52504.03;2087808;28;30933;-69
2023/03/10 00:45:43;;;;;;;66.95;23.77;;;;;;;-146.25;100.00;52485.81;2096678;28;31353;-69
2023/03/10 00:46:44;;;;;;;68.97;23.13;;;;;;;-146.25;100.00;52506.06;2105096;28;32300;-69
2023/03/10 00:47:46;;;;;;;64.28;23.98;;;;;;;-146.25;100.00;52483.78;2105554;28;27138;-69
2023/03/10 00:48:48;;;;;;;66.60;23.85;;;;;;;-146.25;100.00;52449.31;2105542;28;26128;-68
2023/03/10 00:49:50;;;;;;;62.42;22.45;;;;;;;-146.25;100.00;52487.81;2105492;28;30919;-69
2023/03/10 00:50:52;;;;;;;59.38;21.67;;;;;;;-146.25;100.00;52483.78;2096361;28;20887;-68
2023/03/10 00:51:54;;;;;;;65.80;23.63;;;;;;;-146.25;100.00;52457.41;2096332;28;31834;-68
2023/03/10 00:52:55;;;;;;;69.22;24.23;;;;;;;-146.25;100.00;52441.19;2096506;28;20900;-68
2023/03/10 00:54:02;;;;;;;70.78;24.63;;;;;;;-146.25;100.00;52473.63;2096801;28;20041;-68
2023/03/10 00:55:05;;;;;;;64.40;22.52;;;;;;;-146.25;100.00;52489.84;2106059;28;20037;-68
2023/03/10 00:56:26;;;;;;;61.90;22.50;;;;;;;-146.25;100.00;52491.88;2095890;28;33454;-68
2023/03/10 00:57:27;;;;;;;61.15;20.85;;;;;;;-146.25;100.00;52475.66;2099612;28;27910;-68
2023/03/10 00:58:31;;;;;;;63.88;23.55;;;;;;;-146.25;100.00;52495.94;2097082;28;20052;-68
2023/03/10 00:59:34;;;;;;;60.35;21.92;;;;;;;-146.25;100.00;52465.53;2096677;28;20155;-68
2023/03/10 01:00:50;;;;;;;58.55;21.73;;;;;;;-146.25;100.00;52514.19;2089815;28;27677;-68
2023/03/10 01:01:52;;;;;;;62.45;22.20;;;;;;;-146.25;100.00;52485.81;2096377;28;35251;-68
2023/03/10 01:02:53;;;;;;;67.20;23.63;;;;;;;-146.25;100.00;52475.66;2105053;28;32726;-67
2023/03/10 01:03:58;;;;;;;61.60;22.42;;;;;;;-146.25;100.00;52439.16;2105222;28;27952;-68
2023/03/10 01:05:00;;;;;;;63.00;22.00;;;;;;;-146.25;100.00;52485.81;2096102;28;25052;-68
2023/03/10 01:06:02;;;;;;;61.80;21.23;;;;;;;-146.25;100.00;52485.81;2096897;28;29137;-68
2023/03/10 01:07:03;;;;;;;50.30;18.55;;;;;;;-146.25;100.00;52518.25;2105479;28;25341;-68
2023/03/10 01:08:07;;;;;;;62.67;22.30;;;;;;;-146.25;100.00;52491.88;2088184;28;20815;-68
2023/03/10 01:09:09;;;;;;;58.33;22.55;;;;;;;-146.25;100.00;52508.09;2079746;28;24478;-68
2023/03/10 01:10:12;;;;;;;64.70;23.23;;;;;;;-146.25;100.00;52500.00;2079709;28;21122;-67
2023/03/10 01:11:21;;;;;;;55.05;21.63;;;;;;;-146.25;100.00;52481.75;2088148;28;29631;-68
2023/03/10 01:12:24;;;;;;;56.15;21.80;;;;;;;-146.25;100.00;52504.03;2105767;28;20040;-67
2023/03/10 01:13:27;;;;;;;57.55;21.73;;;;;;;-146.25;100.00;52518.25;2104936;28;32880;-67
2023/03/10 01:14:30;;;;;;;56.42;21.40;;;;;;;-146.25;100.00;52475.66;2096297;28;20045;-67
2023/03/10 01:15:32;;;;;;;56.00;21.77;;;;;;;-146.25;100.00;52479.72;2096208;28;31832;-66
2023/03/10 01:16:34;;;;;;;52.97;20.73;;;;;;;-146.25;100.00;52493.91;2105305;28;28389;-67
2023/03/10 01:17:36;;;;;;;58.83;22.25;;;;;;;-146.25;100.00;52485.81;2096470;28;20044;-67
2023/03/10 01:18:42;;;;;;;55.85;19.92;;;;;;;-146.25;100.00;52493.91;2097000;28;20172;-67
2023/03/10 01:19:44;;;;;;;55.08;21.00;;;;;;;-146.25;100.00;52506.06;2105269;28;20054;-67
2023/03/10 01:20:47;;;;;;;55.88;20.55;;;;;;;-146.25;100.00;52453.34;2105856;28;23509;-66
2023/03/10 01:21:51;;;;;;;54.65;20.05;;;;;;;-146.25;100.00;52437.13;2087889;28;20045;-67
2023/03/10 01:22:55;;;;;;;53.45;20.95;;;;;;;-146.25;100.00;52510.13;2089021;28;26572;-65
2023/03/10 01:23:59;;;;;;;54.38;20.08;;;;;;;-146.25;100.00;52471.59;2095312;28;33336;-66
2023/03/10 01:25:03;;;;;;;50.92;20.40;;;;;;;-146.25;100.00;52479.72;2088307;28;20093;-67
2023/03/10 01:26:05;;;;;;;49.80;18.83;;;;;;;-146.25;100.00;52497.97;2096471;28;23491;-66
2023/03/10 01:27:06;;;;;;;46.15;18.92;;;;;;;-146.25;100.00;52485.81;2096158;28;20076;-66
2023/03/10 01:28:11;;;;;;;49.45;19.52;;;;;;;-146.25;100.00;52471.59;2088256;28;20033;-66
2023/03/10 01:29:13;;;;;;;54.28;20.60;;;;;;;-146.25;100.00;52465.53;2088560;28;21649;-66
2023/03/10 01:30:15;;;;;;;48.45;19.33;;;;;;;-146.25;100.00;52465.53;2080512;28;20513;-66
2023/03/10 01:31:17;;;;;;;52.83;20.15;;;;;;;-146.25;100.00;52465.53;2079942;28;21739;-66
2023/03/10 01:32:19;;;;;;;49.00;19.40;;;;;;;-146.25;100.00;52500.00;2096740;28;20037;-67
2023/03/10 01:33:21;;;;;;;47.08;18.13;;;;;;;-146.25;100.00;52497.97;2096551;28;20044;-66
2023/03/10 01:34:22;;;;;;;50.10;19.95;;;;;;;-146.25;100.00;52485.81;2096373;28;20049;-66
2023/03/10 01:35:24;;;;;;;50.90;19.67;;;;;;;-146.25;100.00;52510.13;2096170;28;32171;-67
2023/03/10 01:36:26;;;;;;;52.08;19.95;;;;;;;-146.25;100.00;52489.84;2105090;28;29174;-66
2023/03/10 01:37:28;;;;;;;47.20;18.58;;;;;;;-146.25;100.00;52485.81;2105581;28;20706;-66
2023/03/10 01:38:30;;;;;;;38.28;16.40;;;;;;;-146.25;100.00;52493.91;2104902;28;27679;-66
2023/03/10 01:39:31;;;;;;;56.67;20.08;;;;;;;-146.25;100.00;52497.97;2104915;28;30104;-66
2023/03/10 01:40:35;;;;;;;48.67;18.90;;;;;;;-146.25;100.00;52447.28;2104929;28;25666;-66
2023/03/10 01:41:38;;;;;;;50.55;19.15;;;;;;;-146.25;100.00;52487.81;2095791;28;30840;-66
2023/03/10 01:42:42;;;;;;;51.85;19.27;;;;;;;-146.25;100.00;52477.69;2080853;28;20046;-66
2023/03/10 01:43:51;;;;;;;44.88;17.65;;;;;;;-146.25;100.00;52500.00;2088884;28;25670;-66
2023/03/10 01:45:29;;;;;;;44.75;16.80;;;;;;;-146.25;100.00;52465.53;2096888;28;20041;-66
2023/03/10 01:46:49;;;;;;;44.80;17.35;;;;;;;-146.25;100.00;52487.81;2059616;28;20043;-66
2023/03/10 01:47:56;;;;;;;45.78;16.77;;;;;;;-146.25;100.00;52489.84;2089259;28;20072;-66
2023/03/10 01:49:04;;;;;;;48.08;18.63;;;;;;;-146.25;100.00;52477.69;2088335;28;20148;-66
2023/03/10 01:50:15;;;;;;;45.40;17.38;;;;;;;-146.25;100.00;52502.03;2089024;28;20132;-66
2023/03/10 01:51:17;;;;;;;50.97;19.15;;;;;;;-146.25;100.00;52487.81;2089442;28;20049;-66
2023/03/10 01:52:23;;;;;;;47.75;19.35;;;;;;;-146.25;100.00;52479.72;2088078;28;20049;-66
2023/03/10 01:53:27;;;;;;;47.33;18.33;;;;;;;-146.25;100.00;52491.88;2088513;28;23415;-66
2023/03/10 01:54:45;;;;;;;51.58;19.60;;;;;;;-146.25;100.00;52495.94;2080536;28;20054;-65
2023/03/10 01:55:53;;;;;;;50.78;18.10;;;;;;;-146.25;100.00;52477.69;2092654;28;24406;-65
2023/03/10 01:56:57;;;;;;;50.42;17.95;;;;;;;-146.25;100.00;52489.84;2087971;28;20076;-65
2023/03/10 01:58:00;;;;;;;46.95;18.10;;;;;;;-146.25;100.00;52483.78;2080864;28;28897;-65
2023/03/10 01:59:02;;;;;;;50.92;18.52;;;;;;;-146.25;100.00;52500.00;2079986;28;20046;-66
2023/03/10 02:00:11;;;;;;;56.20;19.80;;;;;;;-146.25;100.00;52485.81;2087811;28;25466;-65
2023/03/10 02:01:16;;;;;;;55.90;19.55;;;;;;;-146.25;100.00;52487.81;2088888;28;20045;-66
2023/03/10 02:02:19;;;;;;;54.13;20.35;;;;;;;-146.25;100.00;52443.22;2089408;28;20119;-65
2023/03/10 02:03:30;;;;;;;55.83;20.33;;;;;;;-146.25;100.00;52477.69;2087761;28;20167;-65
2023/03/10 02:04:52;;;;;;;56.45;20.25;;;;;;;-146.25;100.00;52487.81;2089325;28;20049;-65
2023/03/10 02:05:59;;;;;;;53.58;20.65;;;;;;;-146.25;100.00;52510.13;2097623;28;43753;-64
2023/03/10 02:07:04;;;;;;;45.95;18.05;;;;;;;-146.25;100.00;52485.81;2096452;28;20509;-65
2023/03/10 02:08:08;;;;;;;52.05;19.48;;;;;;;-146.25;100.00;52449.31;2088329;28;33075;-65
2023/03/10 02:09:10;;;;;;;48.83;19.27;;;;;;;-146.25;100.00;52441.19;2088741;28;20037;-65
2023/03/10 02:10:14;;;;;;;52.45;19.75;;;;;;;-146.25;100.00;52487.81;2088348;28;22359;-65
2023/03/10 02:11:17;;;;;;;48.92;18.67;;;;;;;-146.25;100.00;52500.00;2095715;28;28095;-65
2023/03/10 02:12:19;;;;;;;56.83;20.48;;;;;;;-146.25;100.00;52479.72;2105166;28;20036;-65
2023/03/10 02:13:21;;;;;;;49.05;18.60;;;;;;;-146.25;100.00;52489.84;2087583;28;27958;-65
2023/03/10 02:14:23;;;;;;;49.70;18.92;;;;;;;-146.25;100.00;52477.69;2087986;28;32183;-65
2023/03/10 02:15:25;;;;;;;57.22;21.15;;;;;;;-146.25;100.00;52455.38;2095887;28;26593;-64
2023/03/10 02:16:27;;;;;;;53.88;20.33;;;;;;;-146.25;100.00;52495.94;2096654;28;20075;-65
2023/03/10 02:17:33;;;;;;;52.47;20.27;;;;;;;-146.25;100.00;52510.13;2095785;28;20044;-64
2023/03/10 02:18:35;;;;;;;57.25;20.20;;;;;;;-146.25;100.00;52473.63;2087640;28;32962;-64
2023/03/10 02:20:01;;;;;;;55.55;20.67;;;;;;;-146.25;100.00;52489.84;2096750;28;20049;-65
2023/03/10 02:21:38;;;;;;;51.42;18.98;;;;;;;-146.25;100.00;52449.31;2087729;28;20096;-65
2023/03/10 02:22:40;;;;;;;60.17;19.45;;;;;;;-146.25;100.00;52489.84;2092071;28;20049;-65
2023/03/10 02:24:14;;;;;;;58.30;20.45;;;;;;;-146.25;100.00;52485.81;2092135;28;20037;-64
2023/03/10 02:25:46;;;;;;;47.03;17.95;;;;;;;-146.25;100.00;52477.69;2100891;28;20041;-65
2023/03/10 02:27:12;;;;;;;52.95;19.73;;;;;;;-146.25;100.00;52467.56;2105451;28;20028;-64
2023/03/10 02:28:14;;;;;;;50.00;18.50;;;;;;;-146.25;100.00;52489.84;2105256;28;20045;-64
2023/03/10 02:29:28;;;;;;;52.53;19.52;;;;;;;-146.25;100.00;52510.13;2095943;28;20168;-64
2023/03/10 02:30:37;;;;;;;55.45;20.67;;;;;;;-146.25;100.00;52483.78;2087649;28;20042;-64
2023/03/10 02:31:40;;;;;;;57.83;20.50;;;;;;;-146.25;100.00;52469.56;2082069;28;20092;-64
2023/03/10 02:32:47;;;;;;;51.13;18.02;;;;;;;-146.25;100.00;52495.94;2088022;28;20049;-64
2023/03/10 02:33:50;;;;;;;57.72;20.27;;;;;;;-146.25;100.00;52465.53;2088869;28;20049;-64
2023/03/10 02:34:52;;;;;;;56.85;21.23;;;;;;;-146.25;100.00;52459.44;2080384;28;20097;-64
2023/03/10 02:36:12;;;;;;;59.83;21.23;;;;;;;-146.25;100.00;52481.75;2088288;28;20041;-64
2023/03/10 02:37:25;;;;;;;58.17;20.55;;;;;;;-146.25;100.00;52479.72;2104429;28;28717;-64
2023/03/10 02:38:28;;;;;;;62.25;21.85;;;;;;;-146.25;100.00;52500.00;2096037;28;20044;-64
2023/03/10 02:39:30;;;;;;;64.38;21.88;;;;;;;-146.25;100.00;52500.00;2087407;28;29307;-63
2023/03/10 02:40:36;;;;;;;58.10;21.63;;;;;;;-146.25;100.00;52465.53;2087801;28;20168;-64
2023/03/10 02:41:45;;;;;;;60.47;21.70;;;;;;;-146.25;100.00;52528.38;2089063;28;20110;-63
2023/03/10 02:42:51;;;;;;;57.33;20.27;;;;;;;-146.25;100.00;52495.94;2087907;28;20998;-64
2023/03/10 02:43:55;;;;;;;67.75;22.33;;;;;;;-146.25;100.00;52467.56;2096307;28;20033;-63
2023/03/10 02:45:03;;;;;;;61.35;21.15;;;;;;;-146.25;100.00;52461.47;2087511;28;20848;-64
2023/03/10 02:46:07;;;;;;;62.25;21.70;;;;;;;-146.25;100.00;52493.91;2073622;28;20099;-63
2023/03/10 02:47:15;;;;;;;63.67;22.58;;;;;;;-146.25;100.00;52473.63;2081679;28;20034;-63
2023/03/10 02:48:31;;;;;;;68.10;22.73;;;;;;;-146.25;100.00;52465.53;2087851;28;20164;-64
2023/03/10 02:49:35;;;;;;;67.30;22.83;;;;;;;-146.25;100.00;52481.75;2089754;28;20224;-64
2023/03/10 02:50:41;;;;;;;63.60;22.13;;;;;;;-146.25;100.00;52500.00;2087253;28;20812;-64
2023/03/10 02:51:46;;;;;;;65.15;22.42;;;;;;;-146.25;100.00;52485.81;2088855;28;34725;-63
2023/03/10 02:53:02;;;;;;;63.63;22.42;;;;;;;-146.25;100.00;52491.88;2095866;28;20835;-63
2023/03/10 02:54:06;;;;;;;52.50;19.80;;;;;;;-146.25;100.00;52485.81;2089476;28;20819;-63
2023/03/10 02:55:15;;;;;;;50.53;19.67;;;;;;;-146.25;100.00;52437.13;2089464;28;20053;-64
2023/03/10 02:56:18;;;;;;;59.05;20.48;;;;;;;-146.25;100.00;52481.75;2096139;28;20099;-64
2023/03/10 02:57:20;;;;;;;62.58;21.20;;;;;;;-146.25;100.00;52461.47;2079226;28;20085;-64
2023/03/10 02:58:24;;;;;;;58.90;22.20;;;;;;;-146.25;100.00;52469.56;2087888;28;20037;-63
2023/03/10 02:59:26;;;;;;;60.10;21.63;;;;;;;-146.25;100.00;52502.03;2087700;28;22870;-63
2023/03/10 03:00:29;;;;;;;62.25;23.20;;;;;;;-146.25;100.00;52487.81;2095130;28;20135;-63
2023/03/10 03:01:31;;;;;;;63.15;21.92;;;;;;;-146.25;100.00;52471.59;2095460;28;20060;-63
2023/03/10 03:02:33;;;;;;;63.38;22.52;;;;;;;-146.25;100.00;52502.03;2087484;28;20034;-64
2023/03/10 03:05:14;;;;;;;57.53;20.80;;;;;;;-146.25;100.00;52487.81;2088345;28;20049;-63
2023/03/10 03:06:16;;;;;;;54.70;21.23;;;;;;;-146.25;100.00;52500.00;2078851;28;33386;-63
2023/03/10 03:07:18;;;;;;;61.10;21.85;;;;;;;-146.25;100.00;52477.69;2079677;28;20042;-63
2023/03/10 03:08:25;;;;;;;61.10;21.70;;;;;;;-146.25;100.00;52500.00;2087268;28;20045;-63
2023/03/10 03:09:28;;;;;;;61.38;21.83;;;;;;;-146.25;100.00;52506.06;2087689;28;20034;-62
2023/03/10 03:10:32;;;;;;;61.05;21.85;;;;;;;-146.25;100.00;52514.19;2078984;28;20168;-63
2023/03/10 03:11:34;;;;;;;56.67;20.63;;;;;;;-146.25;100.00;52500.00;2071142;28;20046;-63
2023/03/10 03:12:37;;;;;;;61.03;20.92;;;;;;;-146.25;100.00;52453.34;2079157;28;20152;-63
2023/03/10 03:13:40;;;;;;;55.67;20.92;;;;;;;-146.25;100.00;52508.09;2079218;28;20046;-63
2023/03/10 03:14:41;;;;;;;61.45;20.63;;;;;;;-146.25;100.00;52477.69;2079136;28;20169;-63
2023/03/10 03:15:43;;;;;;;63.28;22.45;;;;;;;-146.25;100.00;52489.84;2070756;28;27179;-63
2023/03/10 03:16:45;;;;;;;54.20;19.58;;;;;;;-146.25;100.00;52506.06;2079543;28;20049;-63
2023/03/10 03:17:47;;;;;;;60.13;21.80;;;;;;;-146.25;100.00;52465.53;2079234;28;20058;-63
2023/03/10 03:18:49;;;;;;;57.58;19.80;;;;;;;-146.25;100.00;52500.00;2079227;28;20042;-63
2023/03/10 03:19:53;;;;;;;57.42;20.83;;;;;;;-146.25;100.00;52477.69;2079810;28;20050;-63
2023/03/10 03:21:01;;;;;;;60.10;21.83;;;;;;;-146.25;100.00;52487.81;2064466;28;20873;-63
2023/03/10 03:22:03;;;;;;;58.22;20.88;;;;;;;-146.25;100.00;52473.63;2081585;28;20058;-63
2023/03/10 03:23:05;;;;;;;59.33;21.10;;;;;;;-146.25;100.00;52512.16;2088735;28;22108;-63
2023/03/10 03:24:07;;;;;;;59.50;20.92;;;;;;;-146.25;100.00;52477.69;2080589;28;20045;-62
2023/03/10 03:25:14;;;;;;;58.33;20.15;;;;;;;-146.25;100.00;52526.34;2072528;28;20039;-63
2023/03/10 03:26:20;;;;;;;59.15;21.90;;;;;;;-146.25;100.00;52465.53;2080827;28;20085;-63
2023/03/10 03:27:24;;;;;;;68.05;22.00;;;;;;;-146.25;100.00;52489.84;2080636;28;20053;-63
2023/03/10 03:28:26;;;;;;;64.10;21.15;;;;;;;-146.25;100.00;52485.81;2080012;28;33052;-63
2023/03/10 03:29:28;;;;;;;60.70;21.33;;;;;;;-146.25;100.00;52457.41;2088250;28;33791;-63
2023/03/10 03:30:33;;;;;;;56.63;20.70;;;;;;;-146.25;100.00;52489.84;2080378;28;30444;-63
2023/03/10 03:31:37;;;;;;;61.03;21.20;;;;;;;-146.25;100.00;52502.03;2081470;28;20101;-63
2023/03/10 03:32:46;;;;;;;54.83;18.63;;;;;;;-146.25;100.00;52463.50;2080532;28;20042;-63
2023/03/10 03:33:48;;;;;;;60.95;20.67;;;;;;;-146.25;100.00;52485.81;2080813;28;20895;-63
2023/03/10 03:34:51;;;;;;;61.40;21.17;;;;;;;-146.25;100.00;52467.56;2081675;28;20045;-63
2023/03/10 03:35:53;;;;;;;63.50;20.77;;;;;;;-146.25;100.00;52485.81;2082475;28;27151;-63
2023/03/10 03:36:55;;;;;;;60.13;21.23;;;;;;;-146.25;100.00;52522.28;2088747;28;20037;-63
2023/03/10 03:38:04;;;;;;;56.83;20.33;;;;;;;-146.25;100.00;52465.53;2088972;28;20048;-63
2023/03/10 03:39:06;;;;;;;58.13;19.95;;;;;;;-146.25;100.00;52508.09;2080658;28;21073;-62
2023/03/10 03:40:11;;;;;;;58.90;19.88;;;;;;;-146.25;100.00;52506.06;2081339;28;20147;-62
2023/03/10 03:41:16;;;;;;;55.80;20.63;;;;;;;-146.25;100.00;52467.56;2080273;28;20053;-62
2023/03/10 03:42:20;;;;;;;57.88;20.77;;;;;;;-146.25;100.00;52504.03;2080813;28;20882;-62
2023/03/10 03:43:28;;;;;;;59.13;21.05;;;;;;;-146.25;100.00;52506.06;2088645;28;20222;-63
2023/03/10 03:44:31;;;;;;;64.43;20.42;;;;;;;-146.25;100.00;52495.94;2088403;28;20055;-63
2023/03/10 03:45:34;;;;;;;58.47;20.55;;;;;;;-146.25;100.00;52487.81;2088888;28;20034;-62
2023/03/10 03:46:36;;;;;;;57.55;20.15;;;;;;;-146.25;100.00;52445.25;2088863;28;20822;-61
2023/03/10 03:47:39;;;;;;;59.45;19.65;;;;;;;-146.25;100.00;52493.91;2080713;28;20930;-63
2023/03/10 03:48:40;;;;;;;63.60;21.20;;;;;;;-146.25;100.00;52489.84;2072287;28;20807;-62
2023/03/10 03:49:43;;;;;;;54.50;20.33;;;;;;;-146.25;100.00;52469.56;2064992;28;20594;-63
2023/03/10 03:50:49;;;;;;;52.10;19.02;;;;;;;-146.25;100.00;52473.63;2081001;28;20049;-62
2023/03/10 03:51:58;;;;;;;47.80;16.98;;;;;;;-146.25;100.00;52481.75;2080119;28;20034;-62
2023/03/10 03:53:00;;;;;;;57.33;19.25;;;;;;;-146.25;100.00;52469.56;2080921;28;20042;-62
2023/03/10 03:54:05;;;;;;;58.10;20.20;;;;;;;-146.25;100.00;52502.03;2080592;28;20069;-62
2023/03/10 03:55:12;;;;;;;58.38;20.73;;;;;;;-146.25;100.00;52491.88;2072906;28;20140;-62
2023/03/10 03:56:14;;;;;;;57.30;20.55;;;;;;;-146.25;100.00;52510.13;2080581;28;21465;-62
2023/03/10 03:57:22;;;;;;;56.22;20.02;;;;;;;-146.25;100.00;52518.25;2088416;28;20049;-62
2023/03/10 03:58:24;;;;;;;49.90;18.88;;;;;;;-146.25;100.00;52514.19;2088621;28;20873;-62
2023/03/10 03:59:26;;;;;;;57.42;19.55;;;;;;;-146.25;100.00;52457.41;2088389;28;20048;-62
2023/03/10 04:00:29;;;;;;;53.05;19.05;;;;;;;-146.25;100.00;52447.28;2088563;28;20127;-62
2023/03/10 04:01:37;;;;;;;51.25;18.30;;;;;;;-146.25;100.00;52489.84;2088445;28;20164;-62
2023/03/10 04:02:41;;;;;;;57.80;19.17;;;;;;;-146.25;100.00;52526.34;2088700;28;20048;-62
2023/03/10 04:03:43;;;;;;;54.55;19.63;;;;;;;-146.25;100.00;52506.06;2072451;28;20050;-62
2023/03/10 04:04:48;;;;;;;53.53;18.65;;;;;;;-146.25;100.00;52487.81;2073181;28;20836;-62
2023/03/10 04:05:51;;;;;;;55.33;19.50;;;;;;;-146.25;100.00;52467.56;2080359;28;20227;-62
2023/03/10 04:06:54;;;;;;;51.10;17.65;;;;;;;-146.25;100.00;52487.81;2088742;28;20946;-62
2023/03/10 04:07:59;;;;;;;57.50;19.58;;;;;;;-146.25;100.00;52479.72;2088730;28;20111;-62
2023/03/10 04:09:03;;;;;;;49.60;18.10;;;;;;;-146.25;100.00;52461.47;2088624;28;20256;-60
2023/03/10 04:10:11;;;;;;;52.50;18.80;;;;;;;-146.25;100.00;52510.13;2088588;28;20033;-62
2023/03/10 04:11:15;;;;;;;54.72;19.23;;;;;;;-146.25;100.00;52516.22;2079806;28;25519;-62
2023/03/10 04:12:20;;;;;;;48.45;18.73;;;;;;;-146.25;100.00;52477.69;2073098;28;20046;-62
2023/03/10 04:13:22;;;;;;;53.80;19.45;;;;;;;-146.25;100.00;52493.91;2080147;28;20088;-62
2023/03/10 04:14:24;;;;;;;49.63;18.67;;;;;;;-146.25;100.00;52491.88;2080533;28;20046;-62
2023/03/10 04:15:28;;;;;;;55.33;18.95;;;;;;;-146.25;100.00;52493.91;2088665;28;20079;-62
2023/03/10 04:16:34;;;;;;;53.28;19.48;;;;;;;-146.25;100.00;52447.28;2079950;28;20046;-62
2023/03/10 04:17:38;;;;;;;53.03;19.05;;;;;;;-146.25;100.00;52506.06;2080456;28;20950;-62
2023/03/10 04:18:40;;;;;;;55.50;19.77;;;;;;;-146.25;100.00;52473.63;2080702;28;20892;-62
2023/03/10 04:19:45;;;;;;;48.08;17.48;;;;;;;-146.25;100.00;52548.66;2088739;28;20175;-62
2023/03/10 04:20:57;;;;;;;53.58;19.13;;;;;;;-146.25;100.00;52491.88;2088310;28;20033;-62
2023/03/10 04:22:00;;;;;;;55.55;19.83;;;;;;;-146.25;100.00;52477.69;2088606;28;20216;-62
2023/03/10 04:23:03;;;;;;;62.38;21.90;;;;;;;-146.25;100.00;52449.31;2088846;28;20187;-62
2023/03/10 04:24:08;;;;;;;58.58;21.17;;;;;;;-146.25;100.00;52497.97;2080088;28;20772;-62
2023/03/10 04:25:10;;;;;;;56.85;19.70;;;;;;;-146.25;100.00;52491.88;2080042;28;20085;-62
2023/03/10 04:26:12;;;;;;;64.25;21.60;;;;;;;-146.25;100.00;52487.81;2080596;28;20160;-62
2023/03/10 04:27:14;;;;;;;56.00;21.20;;;;;;;-146.25;100.00;52491.88;2088500;28;20892;-61
2023/03/10 04:28:18;;;;;;;61.75;21.55;;;;;;;-146.25;100.00;52493.91;2080299;28;20580;-62
2023/03/10 04:29:23;;;;;;;60.88;21.38;;;;;;;-146.25;100.00;52483.78;2080638;28;20029;-61
2023/03/10 04:30:28;;;;;;;62.63;21.88;;;;;;;-146.25;100.00;52473.63;2088721;28;20227;-62
2023/03/10 04:31:31;;;;;;;62.15;21.33;;;;;;;-146.25;100.00;52467.56;2088166;28;20175;-61
2023/03/10 04:32:36;;;;;;;67.15;22.60;;;;;;;-146.25;100.00;52506.06;2080055;28;20097;-62
2023/03/10 04:33:38;;;;;;;66.07;23.10;;;;;;;-146.25;100.00;52479.72;2072064;28;20050;-62
2023/03/10 04:34:42;;;;;;;64.20;22.20;;;;;;;-146.25;100.00;52487.81;2080220;28;20042;-62
2023/03/10 04:35:50;;;;;;;64.80;23.45;;;;;;;-146.25;100.00;52495.94;2080232;28;20172;-62
2023/03/10 04:36:53;;;;;;;66.53;24.48;;;;;;;-146.25;100.00;52502.03;2080447;28;20242;-62
2023/03/10 04:37:54;;;;;;;67.68;24.58;;;;;;;-146.25;100.00;52457.41;2080660;28;20046;-62
2023/03/10 04:38:58;;;;;;;74.75;24.98;;;;;;;-146.25;100.00;52475.66;2080112;28;20069;-62
2023/03/10 04:40:08;;;;;;;77.90;25.52;;;;;;;-146.25;100.00;52508.09;2080936;28;20127;-62
2023/03/10 04:41:10;;;;;;;79.53;26.15;;;;;;;-146.25;100.00;52469.56;2088150;28;22968;-62
2023/03/10 04:42:15;;;;;;;72.75;25.33;;;;;;;-146.25;100.00;52467.56;2088448;28;20046;-62
2023/03/10 04:43:17;;;;;;;73.97;25.88;;;;;;;-146.25;100.00;52512.16;2079686;28;23908;-62
2023/03/10 04:44:19;;;;;;;85.75;28.40;;;;;;;-146.25;100.00;52516.22;2080199;28;20046;-62
2023/03/10 04:45:32;;;;;;;73.30;25.45;;;;;;;-146.25;100.00;52473.63;2081512;28;20049;-61
2023/03/10 04:46:35;;;;;;;81.68;28.00;;;;;;;-146.25;100.00;52497.97;2088442;28;20103;-62
2023/03/10 04:47:37;;;;;;;78.05;27.30;;;;;;;-146.25;100.00;52506.06;2088334;28;20987;-62
2023/03/10 04:48:40;;;;;;;84.47;28.40;;;;;;;-146.25;100.00;52485.81;2080266;28;20828;-62
2023/03/10 04:49:41;;;;;;;86.93;28.85;;;;;;;-146.25;100.00;52481.75;2079866;28;24602;-62
2023/03/10 04:50:55;;;;;;;92.63;29.92;;;;;;;-146.25;100.00;52453.34;2081024;28;20049;-62